Pudino, Russia
Current Conditions -  °F | °C
As of 6:00 PM on Thursday 18 Dec 2014 (Local Time) from UNNT Reporting Station
Broken Clouds Broken Clouds  
Wind Chill: -7°   Ceiling: 20000
Heat Index:   Visibility: 6mi
Dew Point:   Wind: 9mph
Humidity: 85%   Direction: 190°S
Pressure: 30.59"   Gusts: NA
Location:  57.57°N, 79.44°E
Report Text: UNNT 181100Z 19004MPS 9000 BKN200 M14/M16 Q1036 2581015516810155 NOSIG RMK QFE767/1023
Loading
Personal Weather Stations






























Interactive Weather Map New forecast layout! Learn more

10-Day Weather Forecast

Advertisements
Track Severe Weather on mobile